sensor_id;sensor_type;location;lat;lon;timestamp;P1;durP1;ratioP1;P2;durP2;ratioP2
3755;SDS011;1893;52.526;13.360;2024-02-16T00:01:18;9.57;;;8.00;;
3755;SDS011;1893;52.526;13.360;2024-02-16T00:03:43;9.43;;;7.17;;
3755;SDS011;1893;52.526;13.360;2024-02-16T00:06:09;12.30;;;7.53;;
3755;SDS011;1893;52.526;13.360;2024-02-16T00:08:36;11.07;;;8.00;;
3755;SDS011;1893;52.526;13.360;2024-02-16T00:11:03;10.40;;;8.10;;
3755;SDS011;1893;52.526;13.360;2024-02-16T00:13:32;11.60;;;8.90;;
3755;SDS011;1893;52.526;13.360;2024-02-16T00:15:58;10.47;;;9.47;;
3755;SDS011;1893;52.526;13.360;2024-02-16T00:18:23;9.43;;;7.77;;
3755;SDS011;1893;52.526;13.360;2024-02-16T00:20:49;13.23;;;7.90;;
3755;SDS011;1893;52.526;13.360;2024-02-16T00:23:15;11.80;;;8.93;;
3755;SDS011;1893;52.526;13.360;2024-02-16T00:25:41;10.70;;;9.10;;
3755;SDS011;1893;52.526;13.360;2024-02-16T00:28:07;12.23;;;9.37;;
3755;SDS011;1893;52.526;13.360;2024-02-16T00:30:33;11.53;;;8.97;;
3755;SDS011;1893;52.526;13.360;2024-02-16T00:32:59;15.00;;;9.90;;
3755;SDS011;1893;52.526;13.360;2024-02-16T00:35:26;11.60;;;9.50;;
3755;SDS011;1893;52.526;13.360;2024-02-16T00:37:51;14.17;;;10.43;;
3755;SDS011;1893;52.526;13.360;2024-02-16T00:40:17;12.80;;;10.00;;
3755;SDS011;1893;52.526;13.360;2024-02-16T00:42:42;16.00;;;11.50;;
3755;SDS011;1893;52.526;13.360;2024-02-16T00:45:08;14.47;;;11.27;;
3755;SDS011;1893;52.526;13.360;2024-02-16T00:47:34;15.87;;;11.00;;
3755;SDS011;1893;52.526;13.360;2024-02-16T00:49:59;14.20;;;11.30;;
3755;SDS011;1893;52.526;13.360;2024-02-16T00:52:25;13.27;;;10.80;;
3755;SDS011;1893;52.526;13.360;2024-02-16T00:54:51;16.47;;;11.37;;
3755;SDS011;1893;52.526;13.360;2024-02-16T00:57:17;15.43;;;11.77;;
3755;SDS011;1893;52.526;13.360;2024-02-16T00:59:42;16.03;;;11.90;;
3755;SDS011;1893;52.526;13.360;2024-02-16T01:02:08;18.30;;;12.00;;
3755;SDS011;1893;52.526;13.360;2024-02-16T01:04:35;18.20;;;13.17;;
3755;SDS011;1893;52.526;13.360;2024-02-16T01:07:01;17.50;;;13.10;;
3755;SDS011;1893;52.526;13.360;2024-02-16T01:09:26;17.60;;;12.63;;
3755;SDS011;1893;52.526;13.360;2024-02-16T01:11:52;27.30;;;12.77;;
3755;SDS011;1893;52.526;13.360;2024-02-16T01:14:17;15.80;;;12.60;;
3755;SDS011;1893;52.526;13.360;2024-02-16T01:16:43;24.13;;;13.70;;
3755;SDS011;1893;52.526;13.360;2024-02-16T01:19:10;25.87;;;13.87;;
3755;SDS011;1893;52.526;13.360;2024-02-16T01:21:36;22.77;;;13.70;;
3755;SDS011;1893;52.526;13.360;2024-02-16T01:24:02;17.40;;;13.57;;
3755;SDS011;1893;52.526;13.360;2024-02-16T01:26:28;21.53;;;14.67;;
3755;SDS011;1893;52.526;13.360;2024-02-16T01:28:54;20.10;;;13.03;;
3755;SDS011;1893;52.526;13.360;2024-02-16T01:31:20;21.50;;;14.13;;
3755;SDS011;1893;52.526;13.360;2024-02-16T01:33:45;17.43;;;12.50;;
3755;SDS011;1893;52.526;13.360;2024-02-16T01:36:11;23.80;;;15.30;;
3755;SDS011;1893;52.526;13.360;2024-02-16T01:38:37;18.63;;;13.40;;
3755;SDS011;1893;52.526;13.360;2024-02-16T01:41:02;18.83;;;14.10;;
3755;SDS011;1893;52.526;13.360;2024-02-16T01:43:28;23.13;;;15.40;;
3755;SDS011;1893;52.526;13.360;2024-02-16T01:45:54;18.33;;;12.10;;
3755;SDS011;1893;52.526;13.360;2024-02-16T01:48:19;23.17;;;14.47;;
3755;SDS011;1893;52.526;13.360;2024-02-16T01:50:45;21.20;;;14.03;;
3755;SDS011;1893;52.526;13.360;2024-02-16T01:53:13;19.10;;;14.10;;
3755;SDS011;1893;52.526;13.360;2024-02-16T01:55:43;22.20;;;14.30;;
3755;SDS011;1893;52.526;13.360;2024-02-16T01:58:12;23.17;;;15.30;;
3755;SDS011;1893;52.526;13.360;2024-02-16T02:00:38;20.83;;;14.70;;
3755;SDS011;1893;52.526;13.360;2024-02-16T02:03:06;23.30;;;14.60;;
3755;SDS011;1893;52.526;13.360;2024-02-16T02:05:32;18.23;;;13.30;;
3755;SDS011;1893;52.526;13.360;2024-02-16T02:07:58;22.60;;;15.10;;
3755;SDS011;1893;52.526;13.360;2024-02-16T02:10:24;21.17;;;13.73;;
3755;SDS011;1893;52.526;13.360;2024-02-16T02:12:50;23.27;;;14.00;;
3755;SDS011;1893;52.526;13.360;2024-02-16T02:15:15;24.27;;;15.63;;
3755;SDS011;1893;52.526;13.360;2024-02-16T02:17:41;21.00;;;15.30;;
3755;SDS011;1893;52.526;13.360;2024-02-16T02:20:06;20.60;;;16.10;;
3755;SDS011;1893;52.526;13.360;2024-02-16T02:22:35;22.80;;;15.03;;
3755;SDS011;1893;52.526;13.360;2024-02-16T02:25:04;24.77;;;15.30;;
3755;SDS011;1893;52.526;13.360;2024-02-16T02:27:30;24.90;;;16.50;;
3755;SDS011;1893;52.526;13.360;2024-02-16T02:29:55;23.83;;;15.70;;
3755;SDS011;1893;52.526;13.360;2024-02-16T02:32:21;23.73;;;16.30;;
3755;SDS011;1893;52.526;13.360;2024-02-16T02:34:47;23.73;;;17.53;;
3755;SDS011;1893;52.526;13.360;2024-02-16T02:37:12;26.07;;;17.27;;
3755;SDS011;1893;52.526;13.360;2024-02-16T02:39:38;23.50;;;16.20;;
3755;SDS011;1893;52.526;13.360;2024-02-16T02:42:04;24.80;;;17.10;;
3755;SDS011;1893;52.526;13.360;2024-02-16T02:44:29;27.03;;;18.67;;
3755;SDS011;1893;52.526;13.360;2024-02-16T02:46:56;29.80;;;17.67;;
3755;SDS011;1893;52.526;13.360;2024-02-16T02:49:22;29.30;;;18.27;;
3755;SDS011;1893;52.526;13.360;2024-02-16T02:51:47;26.00;;;18.00;;
3755;SDS011;1893;52.526;13.360;2024-02-16T02:54:13;25.87;;;18.30;;
3755;SDS011;1893;52.526;13.360;2024-02-16T02:56:38;27.07;;;17.23;;
3755;SDS011;1893;52.526;13.360;2024-02-16T02:59:04;25.47;;;17.50;;
3755;SDS011;1893;52.526;13.360;2024-02-16T03:01:31;26.20;;;17.60;;
3755;SDS011;1893;52.526;13.360;2024-02-16T03:03:56;26.77;;;16.80;;
3755;SDS011;1893;52.526;13.360;2024-02-16T03:06:24;28.37;;;17.57;;
3755;SDS011;1893;52.526;13.360;2024-02-16T03:08:50;26.73;;;17.03;;
3755;SDS011;1893;52.526;13.360;2024-02-16T03:11:16;23.70;;;17.40;;
3755;SDS011;1893;52.526;13.360;2024-02-16T03:13:42;25.23;;;18.83;;
3755;SDS011;1893;52.526;13.360;2024-02-16T03:16:07;25.60;;;16.90;;
3755;SDS011;1893;52.526;13.360;2024-02-16T03:18:33;26.30;;;17.30;;
3755;SDS011;1893;52.526;13.360;2024-02-16T03:20:59;25.37;;;17.70;;
3755;SDS011;1893;52.526;13.360;2024-02-16T03:23:25;27.40;;;18.03;;
3755;SDS011;1893;52.526;13.360;2024-02-16T03:25:52;30.10;;;18.67;;
3755;SDS011;1893;52.526;13.360;2024-02-16T03:28:18;29.37;;;19.27;;
3755;SDS011;1893;52.526;13.360;2024-02-16T03:30:43;26.50;;;17.90;;
3755;SDS011;1893;52.526;13.360;2024-02-16T03:33:09;24.20;;;17.90;;
3755;SDS011;1893;52.526;13.360;2024-02-16T03:35:36;25.90;;;17.70;;
3755;SDS011;1893;52.526;13.360;2024-02-16T03:38:04;23.73;;;15.73;;
3755;SDS011;1893;52.526;13.360;2024-02-16T03:40:31;25.90;;;18.00;;
3755;SDS011;1893;52.526;13.360;2024-02-16T03:42:57;22.50;;;16.40;;
3755;SDS011;1893;52.526;13.360;2024-02-16T03:45:23;24.47;;;18.20;;
3755;SDS011;1893;52.526;13.360;2024-02-16T03:47:49;26.40;;;16.93;;
3755;SDS011;1893;52.526;13.360;2024-02-16T03:50:17;28.73;;;17.47;;
3755;SDS011;1893;52.526;13.360;2024-02-16T03:52:47;29.87;;;17.60;;
3755;SDS011;1893;52.526;13.360;2024-02-16T03:55:13;26.50;;;18.20;;
3755;SDS011;1893;52.526;13.360;2024-02-16T03:57:39;24.70;;;17.43;;
3755;SDS011;1893;52.526;13.360;2024-02-16T04:00:05;27.70;;;18.13;;
3755;SDS011;1893;52.526;13.360;2024-02-16T04:02:31;26.50;;;18.53;;
3755;SDS011;1893;52.526;13.360;2024-02-16T04:04:57;25.60;;;16.90;;
3755;SDS011;1893;52.526;13.360;2024-02-16T04:07:23;24.73;;;17.10;;
3755;SDS011;1893;52.526;13.360;2024-02-16T04:09:49;29.47;;;17.73;;
3755;SDS011;1893;52.526;13.360;2024-02-16T04:12:14;25.57;;;18.20;;
3755;SDS011;1893;52.526;13.360;2024-02-16T04:14:40;27.83;;;19.23;;
3755;SDS011;1893;52.526;13.360;2024-02-16T04:17:06;30.60;;;18.53;;
3755;SDS011;1893;52.526;13.360;2024-02-16T04:19:32;30.30;;;17.17;;
3755;SDS011;1893;52.526;13.360;2024-02-16T04:21:58;26.17;;;17.17;;
3755;SDS011;1893;52.526;13.360;2024-02-16T04:24:23;27.73;;;17.80;;
3755;SDS011;1893;52.526;13.360;2024-02-16T04:26:49;25.50;;;16.80;;
3755;SDS011;1893;52.526;13.360;2024-02-16T04:29:14;25.40;;;17.80;;
3755;SDS011;1893;52.526;13.360;2024-02-16T04:31:41;23.17;;;17.30;;
3755;SDS011;1893;52.526;13.360;2024-02-16T04:34:07;29.17;;;17.40;;
3755;SDS011;1893;52.526;13.360;2024-02-16T04:36:34;26.60;;;18.23;;
3755;SDS011;1893;52.526;13.360;2024-02-16T04:38:59;22.53;;;15.17;;
3755;SDS011;1893;52.526;13.360;2024-02-16T04:41:25;26.00;;;16.10;;
3755;SDS011;1893;52.526;13.360;2024-02-16T04:43:51;27.47;;;16.70;;
3755;SDS011;1893;52.526;13.360;2024-02-16T04:46:16;29.20;;;16.13;;
3755;SDS011;1893;52.526;13.360;2024-02-16T04:48:42;25.27;;;16.80;;
3755;SDS011;1893;52.526;13.360;2024-02-16T04:51:08;24.33;;;15.03;;
3755;SDS011;1893;52.526;13.360;2024-02-16T04:53:35;27.33;;;16.23;;
3755;SDS011;1893;52.526;13.360;2024-02-16T04:56:01;25.67;;;16.80;;
3755;SDS011;1893;52.526;13.360;2024-02-16T04:58:27;23.10;;;15.20;;
3755;SDS011;1893;52.526;13.360;2024-02-16T05:00:53;26.33;;;15.57;;
3755;SDS011;1893;52.526;13.360;2024-02-16T05:03:18;22.53;;;15.47;;
3755;SDS011;1893;52.526;13.360;2024-02-16T05:05:44;25.30;;;16.27;;
3755;SDS011;1893;52.526;13.360;2024-02-16T05:08:10;21.80;;;15.00;;
3755;SDS011;1893;52.526;13.360;2024-02-16T05:10:36;23.20;;;14.70;;
3755;SDS011;1893;52.526;13.360;2024-02-16T05:13:02;22.17;;;15.53;;
3755;SDS011;1893;52.526;13.360;2024-02-16T05:15:28;25.20;;;15.33;;
3755;SDS011;1893;52.526;13.360;2024-02-16T05:17:54;24.23;;;15.43;;
3755;SDS011;1893;52.526;13.360;2024-02-16T05:20:19;24.83;;;14.10;;
3755;SDS011;1893;52.526;13.360;2024-02-16T05:22:45;21.40;;;13.97;;
3755;SDS011;1893;52.526;13.360;2024-02-16T05:25:12;23.23;;;15.30;;
3755;SDS011;1893;52.526;13.360;2024-02-16T05:27:38;24.13;;;14.90;;
3755;SDS011;1893;52.526;13.360;2024-02-16T05:30:04;22.47;;;14.70;;
3755;SDS011;1893;52.526;13.360;2024-02-16T05:32:33;24.70;;;15.83;;
3755;SDS011;1893;52.526;13.360;2024-02-16T05:35:03;20.67;;;13.83;;
3755;SDS011;1893;52.526;13.360;2024-02-16T05:37:46;24.67;;;13.60;;
3755;SDS011;1893;52.526;13.360;2024-02-16T05:40:20;23.73;;;13.50;;
3755;SDS011;1893;52.526;13.360;2024-02-16T05:42:56;24.37;;;14.30;;
3755;SDS011;1893;52.526;13.360;2024-02-16T05:45:26;20.50;;;15.20;;
3755;SDS011;1893;52.526;13.360;2024-02-16T05:47:51;22.47;;;14.80;;
3755;SDS011;1893;52.526;13.360;2024-02-16T05:50:17;24.00;;;15.13;;
3755;SDS011;1893;52.526;13.360;2024-02-16T05:52:45;21.03;;;14.37;;
3755;SDS011;1893;52.526;13.360;2024-02-16T05:55:11;20.20;;;13.30;;
3755;SDS011;1893;52.526;13.360;2024-02-16T05:57:38;21.90;;;14.90;;
3755;SDS011;1893;52.526;13.360;2024-02-16T06:00:04;25.13;;;14.87;;
3755;SDS011;1893;52.526;13.360;2024-02-16T06:02:31;21.53;;;13.80;;
3755;SDS011;1893;52.526;13.360;2024-02-16T06:04:57;24.70;;;14.43;;
3755;SDS011;1893;52.526;13.360;2024-02-16T06:07:24;21.53;;;14.23;;
3755;SDS011;1893;52.526;13.360;2024-02-16T06:09:49;22.33;;;14.57;;
3755;SDS011;1893;52.526;13.360;2024-02-16T06:12:15;21.80;;;14.40;;
3755;SDS011;1893;52.526;13.360;2024-02-16T06:14:41;20.33;;;13.30;;
3755;SDS011;1893;52.526;13.360;2024-02-16T06:17:07;19.60;;;13.27;;
3755;SDS011;1893;52.526;13.360;2024-02-16T06:19:34;16.93;;;13.20;;
3755;SDS011;1893;52.526;13.360;2024-02-16T06:22:00;18.17;;;12.70;;
3755;SDS011;1893;52.526;13.360;2024-02-16T06:24:26;22.53;;;14.47;;
3755;SDS011;1893;52.526;13.360;2024-02-16T06:26:51;24.93;;;14.33;;
3755;SDS011;1893;52.526;13.360;2024-02-16T06:29:17;22.37;;;15.13;;
3755;SDS011;1893;52.526;13.360;2024-02-16T06:31:46;21.40;;;13.13;;
3755;SDS011;1893;52.526;13.360;2024-02-16T06:34:15;20.53;;;12.00;;
3755;SDS011;1893;52.526;13.360;2024-02-16T06:36:41;21.33;;;13.70;;
3755;SDS011;1893;52.526;13.360;2024-02-16T06:39:07;19.70;;;12.43;;
3755;SDS011;1893;52.526;13.360;2024-02-16T06:41:34;21.70;;;13.43;;
3755;SDS011;1893;52.526;13.360;2024-02-16T06:44:00;21.73;;;13.83;;
3755;SDS011;1893;52.526;13.360;2024-02-16T06:46:25;20.73;;;12.83;;
3755;SDS011;1893;52.526;13.360;2024-02-16T06:48:52;18.83;;;12.90;;
3755;SDS011;1893;52.526;13.360;2024-02-16T06:51:21;21.70;;;12.83;;
3755;SDS011;1893;52.526;13.360;2024-02-16T06:53:51;23.33;;;13.70;;
3755;SDS011;1893;52.526;13.360;2024-02-16T06:56:17;24.00;;;13.03;;
3755;SDS011;1893;52.526;13.360;2024-02-16T06:58:43;16.30;;;12.60;;
3755;SDS011;1893;52.526;13.360;2024-02-16T07:01:15;18.10;;;11.87;;
3755;SDS011;1893;52.526;13.360;2024-02-16T07:03:43;18.83;;;13.37;;
3755;SDS011;1893;52.526;13.360;2024-02-16T07:06:09;20.60;;;14.53;;
3755;SDS011;1893;52.526;13.360;2024-02-16T07:08:38;19.70;;;12.40;;
3755;SDS011;1893;52.526;13.360;2024-02-16T07:11:07;25.60;;;13.87;;
3755;SDS011;1893;52.526;13.360;2024-02-16T07:13:34;20.83;;;12.27;;
3755;SDS011;1893;52.526;13.360;2024-02-16T07:16:00;22.40;;;12.40;;
3755;SDS011;1893;52.526;13.360;2024-02-16T07:18:26;19.30;;;12.30;;
3755;SDS011;1893;52.526;13.360;2024-02-16T07:20:52;22.50;;;12.97;;
3755;SDS011;1893;52.526;13.360;2024-02-16T07:23:17;19.00;;;12.83;;
3755;SDS011;1893;52.526;13.360;2024-02-16T07:25:43;17.90;;;13.37;;
3755;SDS011;1893;52.526;13.360;2024-02-16T07:28:09;20.13;;;13.53;;
3755;SDS011;1893;52.526;13.360;2024-02-16T07:30:35;18.90;;;13.07;;
3755;SDS011;1893;52.526;13.360;2024-02-16T07:33:04;21.10;;;13.90;;
3755;SDS011;1893;52.526;13.360;2024-02-16T07:35:32;22.60;;;14.23;;
3755;SDS011;1893;52.526;13.360;2024-02-16T07:37:58;18.73;;;13.67;;
3755;SDS011;1893;52.526;13.360;2024-02-16T07:40:24;18.30;;;13.60;;
3755;SDS011;1893;52.526;13.360;2024-02-16T07:42:49;20.23;;;13.23;;
3755;SDS011;1893;52.526;13.360;2024-02-16T07:45:15;18.23;;;11.73;;
3755;SDS011;1893;52.526;13.360;2024-02-16T07:47:41;22.73;;;13.47;;
3755;SDS011;1893;52.526;13.360;2024-02-16T07:50:07;15.90;;;12.63;;
3755;SDS011;1893;52.526;13.360;2024-02-16T07:52:33;18.00;;;12.40;;
3755;SDS011;1893;52.526;13.360;2024-02-16T07:54:58;18.77;;;13.23;;
3755;SDS011;1893;52.526;13.360;2024-02-16T07:57:24;17.70;;;12.87;;
3755;SDS011;1893;52.526;13.360;2024-02-16T07:59:50;16.87;;;11.83;;
3755;SDS011;1893;52.526;13.360;2024-02-16T08:02:16;18.30;;;13.07;;
3755;SDS011;1893;52.526;13.360;2024-02-16T08:04:42;23.60;;;13.30;;
3755;SDS011;1893;52.526;13.360;2024-02-16T08:07:11;19.03;;;11.60;;
3755;SDS011;1893;52.526;13.360;2024-02-16T08:09:37;17.67;;;12.03;;
3755;SDS011;1893;52.526;13.360;2024-02-16T08:12:03;16.53;;;12.30;;
3755;SDS011;1893;52.526;13.360;2024-02-16T08:14:31;18.80;;;12.10;;
3755;SDS011;1893;52.526;13.360;2024-02-16T08:17:00;18.90;;;12.50;;
3755;SDS011;1893;52.526;13.360;2024-02-16T08:19:31;17.53;;;12.30;;
3755;SDS011;1893;52.526;13.360;2024-02-16T08:22:01;16.00;;;11.43;;
3755;SDS011;1893;52.526;13.360;2024-02-16T08:24:34;20.57;;;11.83;;
3755;SDS011;1893;52.526;13.360;2024-02-16T08:27:00;19.97;;;13.10;;
3755;SDS011;1893;52.526;13.360;2024-02-16T08:29:27;20.33;;;12.90;;
3755;SDS011;1893;52.526;13.360;2024-02-16T08:31:53;17.77;;;11.57;;
3755;SDS011;1893;52.526;13.360;2024-02-16T08:34:19;17.73;;;11.90;;
3755;SDS011;1893;52.526;13.360;2024-02-16T08:36:46;18.27;;;11.23;;
3755;SDS011;1893;52.526;13.360;2024-02-16T08:39:13;16.10;;;10.50;;
3755;SDS011;1893;52.526;13.360;2024-02-16T08:41:39;16.10;;;12.00;;
3755;SDS011;1893;52.526;13.360;2024-02-16T08:44:05;12.87;;;10.30;;
3755;SDS011;1893;52.526;13.360;2024-02-16T08:46:34;18.03;;;12.00;;
3755;SDS011;1893;52.526;13.360;2024-02-16T08:49:00;16.73;;;11.30;;
3755;SDS011;1893;52.526;13.360;2024-02-16T08:51:26;15.00;;;9.97;;
3755;SDS011;1893;52.526;13.360;2024-02-16T08:53:52;13.40;;;9.87;;
3755;SDS011;1893;52.526;13.360;2024-02-16T08:56:17;11.53;;;9.13;;
3755;SDS011;1893;52.526;13.360;2024-02-16T08:58:43;14.30;;;9.87;;
3755;SDS011;1893;52.526;13.360;2024-02-16T09:01:09;12.73;;;9.40;;
3755;SDS011;1893;52.526;13.360;2024-02-16T09:03:34;13.10;;;9.53;;
3755;SDS011;1893;52.526;13.360;2024-02-16T09:06:05;11.93;;;8.83;;
3755;SDS011;1893;52.526;13.360;2024-02-16T09:08:31;10.10;;;7.77;;
3755;SDS011;1893;52.526;13.360;2024-02-16T09:10:59;12.93;;;9.27;;
3755;SDS011;1893;52.526;13.360;2024-02-16T09:13:25;12.73;;;8.80;;
3755;SDS011;1893;52.526;13.360;2024-02-16T09:15:50;9.90;;;8.40;;
3755;SDS011;1893;52.526;13.360;2024-02-16T09:18:19;8.00;;;7.00;;
3755;SDS011;1893;52.526;13.360;2024-02-16T09:20:44;11.30;;;8.07;;
3755;SDS011;1893;52.526;13.360;2024-02-16T09:23:11;10.40;;;8.07;;
3755;SDS011;1893;52.526;13.360;2024-02-16T09:25:36;12.23;;;7.97;;
3755;SDS011;1893;52.526;13.360;2024-02-16T09:28:03;9.63;;;7.30;;
3755;SDS011;1893;52.526;13.360;2024-02-16T09:30:28;8.80;;;6.17;;
3755;SDS011;1893;52.526;13.360;2024-02-16T09:32:54;10.93;;;7.30;;
3755;SDS011;1893;52.526;13.360;2024-02-16T09:35:21;8.80;;;6.03;;
3755;SDS011;1893;52.526;13.360;2024-02-16T09:37:46;9.93;;;7.33;;
3755;SDS011;1893;52.526;13.360;2024-02-16T09:40:12;12.30;;;6.50;;
3755;SDS011;1893;52.526;13.360;2024-02-16T09:42:38;11.83;;;7.03;;
3755;SDS011;1893;52.526;13.360;2024-02-16T09:45:05;6.97;;;6.20;;
3755;SDS011;1893;52.526;13.360;2024-02-16T09:47:32;7.90;;;5.17;;
3755;SDS011;1893;52.526;13.360;2024-02-16T09:50:00;8.03;;;6.17;;
3755;SDS011;1893;52.526;13.360;2024-02-16T09:52:26;6.90;;;5.83;;
3755;SDS011;1893;52.526;13.360;2024-02-16T09:54:51;9.83;;;5.80;;
3755;SDS011;1893;52.526;13.360;2024-02-16T09:57:18;7.60;;;6.03;;
3755;SDS011;1893;52.526;13.360;2024-02-16T09:59:43;8.00;;;5.80;;
3755;SDS011;1893;52.526;13.360;2024-02-16T10:02:09;12.40;;;5.80;;
3755;SDS011;1893;52.526;13.360;2024-02-16T10:04:35;9.90;;;4.90;;
3755;SDS011;1893;52.526;13.360;2024-02-16T10:07:01;7.00;;;4.90;;
3755;SDS011;1893;52.526;13.360;2024-02-16T10:09:27;6.97;;;5.20;;
3755;SDS011;1893;52.526;13.360;2024-02-16T10:11:59;6.47;;;4.57;;
3755;SDS011;1893;52.526;13.360;2024-02-16T10:14:25;7.17;;;5.57;;
3755;SDS011;1893;52.526;13.360;2024-02-16T10:17:01;8.43;;;5.27;;
3755;SDS011;1893;52.526;13.360;2024-02-16T10:19:27;6.07;;;5.33;;
3755;SDS011;1893;52.526;13.360;2024-02-16T10:22:04;6.23;;;5.57;;
3755;SDS011;1893;52.526;13.360;2024-02-16T10:24:34;9.60;;;5.30;;
3755;SDS011;1893;52.526;13.360;2024-02-16T10:26:59;4.77;;;4.27;;
3755;SDS011;1893;52.526;13.360;2024-02-16T10:29:25;6.33;;;5.17;;
3755;SDS011;1893;52.526;13.360;2024-02-16T10:31:53;5.50;;;4.80;;
3755;SDS011;1893;52.526;13.360;2024-02-16T10:34:18;6.33;;;4.77;;
3755;SDS011;1893;52.526;13.360;2024-02-16T10:36:45;8.50;;;4.60;;
3755;SDS011;1893;52.526;13.360;2024-02-16T10:39:11;8.00;;;4.50;;
3755;SDS011;1893;52.526;13.360;2024-02-16T10:41:40;7.70;;;4.80;;
3755;SDS011;1893;52.526;13.360;2024-02-16T10:44:06;7.17;;;5.00;;
3755;SDS011;1893;52.526;13.360;2024-02-16T10:46:33;7.73;;;3.93;;
3755;SDS011;1893;52.526;13.360;2024-02-16T10:48:59;7.73;;;5.33;;
3755;SDS011;1893;52.526;13.360;2024-02-16T10:51:30;8.23;;;5.40;;
3755;SDS011;1893;52.526;13.360;2024-02-16T10:53:59;6.70;;;4.37;;
3755;SDS011;1893;52.526;13.360;2024-02-16T10:56:26;8.73;;;6.17;;
3755;SDS011;1893;52.526;13.360;2024-02-16T10:58:53;6.43;;;5.23;;
3755;SDS011;1893;52.526;13.360;2024-02-16T11:01:19;6.93;;;5.40;;
3755;SDS011;1893;52.526;13.360;2024-02-16T11:03:45;8.13;;;6.10;;
3755;SDS011;1893;52.526;13.360;2024-02-16T11:06:17;8.47;;;5.37;;
3755;SDS011;1893;52.526;13.360;2024-02-16T11:08:43;9.13;;;5.33;;
3755;SDS011;1893;52.526;13.360;2024-02-16T11:11:09;10.10;;;5.17;;
3755;SDS011;1893;52.526;13.360;2024-02-16T11:13:38;6.17;;;4.43;;
3755;SDS011;1893;52.526;13.360;2024-02-16T11:16:08;5.00;;;4.37;;
3755;SDS011;1893;52.526;13.360;2024-02-16T11:18:38;4.90;;;4.40;;
3755;SDS011;1893;52.526;13.360;2024-02-16T11:21:05;6.60;;;4.67;;
3755;SDS011;1893;52.526;13.360;2024-02-16T11:23:32;10.00;;;6.50;;
3755;SDS011;1893;52.526;13.360;2024-02-16T11:26:00;6.67;;;4.60;;
3755;SDS011;1893;52.526;13.360;2024-02-16T11:28:33;11.17;;;6.13;;
3755;SDS011;1893;52.526;13.360;2024-02-16T11:31:00;12.63;;;5.47;;
3755;SDS011;1893;52.526;13.360;2024-02-16T11:33:26;6.33;;;5.33;;
3755;SDS011;1893;52.526;13.360;2024-02-16T11:35:53;6.17;;;5.53;;
3755;SDS011;1893;52.526;13.360;2024-02-16T11:38:23;5.60;;;4.30;;
3755;SDS011;1893;52.526;13.360;2024-02-16T11:41:02;5.53;;;4.63;;
3755;SDS011;1893;52.526;13.360;2024-02-16T11:43:29;4.43;;;3.90;;
3755;SDS011;1893;52.526;13.360;2024-02-16T11:45:55;7.57;;;5.00;;
3755;SDS011;1893;52.526;13.360;2024-02-16T11:48:25;5.70;;;4.43;;
3755;SDS011;1893;52.526;13.360;2024-02-16T11:51:01;5.90;;;4.73;;
3755;SDS011;1893;52.526;13.360;2024-02-16T11:53:29;5.33;;;4.50;;
3755;SDS011;1893;52.526;13.360;2024-02-16T11:58:24;4.27;;;3.87;;
3755;SDS011;1893;52.526;13.360;2024-02-16T12:00:50;5.17;;;4.70;;
3755;SDS011;1893;52.526;13.360;2024-02-16T12:03:25;4.50;;;3.77;;
3755;SDS011;1893;52.526;13.360;2024-02-16T12:05:57;5.00;;;3.90;;
3755;SDS011;1893;52.526;13.360;2024-02-16T12:08:24;8.33;;;4.40;;
3755;SDS011;1893;52.526;13.360;2024-02-16T12:10:57;5.27;;;3.80;;
3755;SDS011;1893;52.526;13.360;2024-02-16T12:13:22;4.97;;;3.83;;
3755;SDS011;1893;52.526;13.360;2024-02-16T12:15:48;5.00;;;3.80;;
3755;SDS011;1893;52.526;13.360;2024-02-16T12:21:00;5.10;;;3.30;;
3755;SDS011;1893;52.526;13.360;2024-02-16T12:23:26;7.40;;;4.00;;
3755;SDS011;1893;52.526;13.360;2024-02-16T12:25:52;5.40;;;4.83;;
3755;SDS011;1893;52.526;13.360;2024-02-16T12:28:18;7.93;;;4.83;;
3755;SDS011;1893;52.526;13.360;2024-02-16T12:30:45;4.20;;;3.77;;
3755;SDS011;1893;52.526;13.360;2024-02-16T12:33:11;4.47;;;3.80;;
3755;SDS011;1893;52.526;13.360;2024-02-16T12:35:37;3.77;;;3.37;;
3755;SDS011;1893;52.526;13.360;2024-02-16T12:38:02;6.03;;;4.17;;
3755;SDS011;1893;52.526;13.360;2024-02-16T12:40:28;4.70;;;3.37;;
3755;SDS011;1893;52.526;13.360;2024-02-16T12:42:54;5.20;;;3.57;;
3755;SDS011;1893;52.526;13.360;2024-02-16T12:45:20;3.83;;;2.93;;
3755;SDS011;1893;52.526;13.360;2024-02-16T12:47:45;4.07;;;3.20;;
3755;SDS011;1893;52.526;13.360;2024-02-16T12:50:12;3.50;;;3.20;;
3755;SDS011;1893;52.526;13.360;2024-02-16T12:52:37;9.07;;;3.13;;
3755;SDS011;1893;52.526;13.360;2024-02-16T12:55:05;4.13;;;2.90;;
3755;SDS011;1893;52.526;13.360;2024-02-16T12:57:31;3.20;;;2.70;;
3755;SDS011;1893;52.526;13.360;2024-02-16T12:59:57;3.00;;;2.80;;
3755;SDS011;1893;52.526;13.360;2024-02-16T13:02:22;3.00;;;2.60;;
3755;SDS011;1893;52.526;13.360;2024-02-16T13:04:48;2.70;;;2.50;;
3755;SDS011;1893;52.526;13.360;2024-02-16T13:07:14;6.17;;;3.57;;
3755;SDS011;1893;52.526;13.360;2024-02-16T13:09:39;5.10;;;2.73;;
3755;SDS011;1893;52.526;13.360;2024-02-16T13:12:06;2.80;;;1.80;;
3755;SDS011;1893;52.526;13.360;2024-02-16T13:14:32;2.33;;;2.13;;
3755;SDS011;1893;52.526;13.360;2024-02-16T13:16:57;3.07;;;2.33;;
3755;SDS011;1893;52.526;13.360;2024-02-16T13:19:23;2.57;;;1.80;;
3755;SDS011;1893;52.526;13.360;2024-02-16T13:21:49;3.30;;;2.50;;
3755;SDS011;1893;52.526;13.360;2024-02-16T13:24:15;1.90;;;1.70;;
3755;SDS011;1893;52.526;13.360;2024-02-16T13:26:41;2.90;;;2.33;;
3755;SDS011;1893;52.526;13.360;2024-02-16T13:29:06;2.47;;;2.27;;
3755;SDS011;1893;52.526;13.360;2024-02-16T13:31:32;5.23;;;2.10;;
3755;SDS011;1893;52.526;13.360;2024-02-16T13:33:58;2.00;;;1.70;;
3755;SDS011;1893;52.526;13.360;2024-02-16T13:36:24;3.40;;;2.40;;
3755;SDS011;1893;52.526;13.360;2024-02-16T13:38:49;3.13;;;2.17;;
3755;SDS011;1893;52.526;13.360;2024-02-16T13:41:15;3.13;;;2.17;;
3755;SDS011;1893;52.526;13.360;2024-02-16T13:43:41;1.80;;;1.70;;
3755;SDS011;1893;52.526;13.360;2024-02-16T13:46:07;4.70;;;2.30;;
3755;SDS011;1893;52.526;13.360;2024-02-16T13:48:32;2.53;;;2.07;;
3755;SDS011;1893;52.526;13.360;2024-02-16T13:50:59;2.03;;;1.93;;
3755;SDS011;1893;52.526;13.360;2024-02-16T13:53:25;2.97;;;2.17;;
3755;SDS011;1893;52.526;13.360;2024-02-16T13:55:51;3.73;;;1.93;;
3755;SDS011;1893;52.526;13.360;2024-02-16T13:58:16;3.80;;;2.60;;
3755;SDS011;1893;52.526;13.360;2024-02-16T14:00:42;2.70;;;1.70;;
3755;SDS011;1893;52.526;13.360;2024-02-16T14:03:11;1.97;;;1.77;;
3755;SDS011;1893;52.526;13.360;2024-02-16T14:05:39;2.33;;;2.10;;
3755;SDS011;1893;52.526;13.360;2024-02-16T14:08:06;2.43;;;2.07;;
3755;SDS011;1893;52.526;13.360;2024-02-16T14:10:34;2.27;;;1.60;;
3755;SDS011;1893;52.526;13.360;2024-02-16T14:13:00;2.17;;;1.97;;
3755;SDS011;1893;52.526;13.360;2024-02-16T14:15:29;3.23;;;2.40;;
3755;SDS011;1893;52.526;13.360;2024-02-16T14:17:56;4.43;;;2.13;;
3755;SDS011;1893;52.526;13.360;2024-02-16T14:20:21;3.17;;;2.90;;
3755;SDS011;1893;52.526;13.360;2024-02-16T14:22:47;2.57;;;2.07;;
3755;SDS011;1893;52.526;13.360;2024-02-16T14:25:13;2.40;;;2.17;;
3755;SDS011;1893;52.526;13.360;2024-02-16T14:27:39;4.97;;;2.30;;
3755;SDS011;1893;52.526;13.360;2024-02-16T14:30:06;2.90;;;2.17;;
3755;SDS011;1893;52.526;13.360;2024-02-16T14:32:32;4.27;;;2.30;;
3755;SDS011;1893;52.526;13.360;2024-02-16T14:35:02;3.60;;;2.43;;
3755;SDS011;1893;52.526;13.360;2024-02-16T14:37:28;2.47;;;2.27;;
3755;SDS011;1893;52.526;13.360;2024-02-16T14:40:08;5.10;;;2.43;;
3755;SDS011;1893;52.526;13.360;2024-02-16T14:42:35;9.37;;;2.80;;
3755;SDS011;1893;52.526;13.360;2024-02-16T14:45:01;4.87;;;2.73;;
3755;SDS011;1893;52.526;13.360;2024-02-16T14:47:28;3.83;;;2.33;;